sensor_id;sensor_type;location;lat;lon;timestamp;P1;durP1;ratioP1;P2;durP2;ratioP2
52458;SDS011;38372;52.902;6.024;2022-09-09T00:06:28;14.52;;;8.48;;
52458;SDS011;38372;52.902;6.024;2022-09-09T00:11:43;16.55;;;9.80;;
52458;SDS011;38372;52.902;6.024;2022-09-09T00:16:49;13.68;;;8.75;;
52458;SDS011;38372;52.902;6.024;2022-09-09T00:19:22;15.07;;;8.63;;
52458;SDS011;38372;52.902;6.024;2022-09-09T00:22:15;13.60;;;9.10;;
52458;SDS011;38372;52.902;6.024;2022-09-09T00:30:39;21.52;;;8.43;;
52458;SDS011;38372;52.902;6.024;2022-09-09T00:32:49;16.30;;;8.07;;
52458;SDS011;38372;52.902;6.024;2022-09-09T00:35:37;10.85;;;7.78;;
52458;SDS011;38372;52.902;6.024;2022-09-09T00:38:13;12.18;;;7.93;;
52458;SDS011;38372;52.902;6.024;2022-09-09T00:43:40;17.90;;;8.70;;
52458;SDS011;38372;52.902;6.024;2022-09-09T00:51:14;12.07;;;8.13;;
52458;SDS011;38372;52.902;6.024;2022-09-09T00:56:46;9.75;;;7.38;;
52458;SDS011;38372;52.902;6.024;2022-09-09T01:01:55;16.98;;;8.00;;
52458;SDS011;38372;52.902;6.024;2022-09-09T01:04:24;11.93;;;7.38;;
52458;SDS011;38372;52.902;6.024;2022-09-09T01:07:03;12.45;;;8.32;;
52458;SDS011;38372;52.902;6.024;2022-09-09T01:09:51;11.85;;;8.80;;
52458;SDS011;38372;52.902;6.024;2022-09-09T01:12:36;14.73;;;8.13;;
52458;SDS011;38372;52.902;6.024;2022-09-09T01:15:19;9.93;;;8.48;;
52458;SDS011;38372;52.902;6.024;2022-09-09T01:23:41;12.52;;;8.18;;
52458;SDS011;38372;52.902;6.024;2022-09-09T01:26:35;12.63;;;8.13;;
52458;SDS011;38372;52.902;6.024;2022-09-09T01:29:08;11.57;;;8.85;;
52458;SDS011;38372;52.902;6.024;2022-09-09T01:31:37;12.95;;;8.93;;
52458;SDS011;38372;52.902;6.024;2022-09-09T01:34:16;15.40;;;8.60;;
52458;SDS011;38372;52.902;6.024;2022-09-09T01:36:58;19.05;;;9.93;;
52458;SDS011;38372;52.902;6.024;2022-09-09T01:39:24;11.98;;;9.05;;
52458;SDS011;38372;52.902;6.024;2022-09-09T01:41:51;12.55;;;9.30;;
52458;SDS011;38372;52.902;6.024;2022-09-09T01:44:18;14.85;;;8.60;;
52458;SDS011;38372;52.902;6.024;2022-09-09T01:46:44;14.60;;;8.82;;
52458;SDS011;38372;52.902;6.024;2022-09-09T01:49:10;14.75;;;8.70;;
52458;SDS011;38372;52.902;6.024;2022-09-09T01:51:36;14.23;;;8.85;;
52458;SDS011;38372;52.902;6.024;2022-09-09T01:54:06;13.27;;;8.60;;
52458;SDS011;38372;52.902;6.024;2022-09-09T02:07:02;15.68;;;9.82;;
52458;SDS011;38372;52.902;6.024;2022-09-09T02:09:33;12.63;;;9.25;;
52458;SDS011;38372;52.902;6.024;2022-09-09T02:12:02;12.90;;;9.55;;
52458;SDS011;38372;52.902;6.024;2022-09-09T02:14:36;13.07;;;9.98;;
52458;SDS011;38372;52.902;6.024;2022-09-09T02:17:10;16.90;;;10.18;;
52458;SDS011;38372;52.902;6.024;2022-09-09T02:19:40;13.27;;;10.02;;
52458;SDS011;38372;52.902;6.024;2022-09-09T02:22:11;12.98;;;9.75;;
52458;SDS011;38372;52.902;6.024;2022-09-09T02:24:39;14.48;;;10.43;;
52458;SDS011;38372;52.902;6.024;2022-09-09T02:27:06;14.02;;;10.55;;
52458;SDS011;38372;52.902;6.024;2022-09-09T02:29:35;13.95;;;8.73;;
52458;SDS011;38372;52.902;6.024;2022-09-09T02:32:06;16.08;;;10.30;;
52458;SDS011;38372;52.902;6.024;2022-09-09T02:34:36;13.73;;;10.15;;
52458;SDS011;38372;52.902;6.024;2022-09-09T02:37:12;18.75;;;10.32;;
52458;SDS011;38372;52.902;6.024;2022-09-09T02:39:42;13.30;;;9.50;;
52458;SDS011;38372;52.902;6.024;2022-09-09T02:42:08;15.02;;;8.02;;
52458;SDS011;38372;52.902;6.024;2022-09-09T02:44:34;17.75;;;10.60;;
52458;SDS011;38372;52.902;6.024;2022-09-09T02:52:15;17.13;;;9.88;;
52458;SDS011;38372;52.902;6.024;2022-09-09T02:54:47;15.25;;;9.05;;
52458;SDS011;38372;52.902;6.024;2022-09-09T02:59:48;12.70;;;8.38;;
52458;SDS011;38372;52.902;6.024;2022-09-09T03:02:15;14.07;;;8.05;;
52458;SDS011;38372;52.902;6.024;2022-09-09T03:04:41;15.55;;;8.50;;
52458;SDS011;38372;52.902;6.024;2022-09-09T03:07:09;12.60;;;8.70;;
52458;SDS011;38372;52.902;6.024;2022-09-09T03:09:37;15.52;;;8.68;;
52458;SDS011;38372;52.902;6.024;2022-09-09T03:12:02;13.52;;;8.95;;
52458;SDS011;38372;52.902;6.024;2022-09-09T03:14:29;13.18;;;9.05;;
52458;SDS011;38372;52.902;6.024;2022-09-09T03:16:55;16.90;;;9.25;;
52458;SDS011;38372;52.902;6.024;2022-09-09T03:19:23;14.20;;;8.68;;
52458;SDS011;38372;52.902;6.024;2022-09-09T03:21:49;17.35;;;9.13;;
52458;SDS011;38372;52.902;6.024;2022-09-09T03:24:15;17.35;;;9.48;;
52458;SDS011;38372;52.902;6.024;2022-09-09T03:26:41;17.27;;;9.65;;
52458;SDS011;38372;52.902;6.024;2022-09-09T03:29:10;17.92;;;9.48;;
52458;SDS011;38372;52.902;6.024;2022-09-09T03:31:37;17.08;;;10.85;;
52458;SDS011;38372;52.902;6.024;2022-09-09T03:34:04;15.30;;;9.35;;
52458;SDS011;38372;52.902;6.024;2022-09-09T03:36:30;21.65;;;9.88;;
52458;SDS011;38372;52.902;6.024;2022-09-09T03:38:57;16.02;;;10.00;;
52458;SDS011;38372;52.902;6.024;2022-09-09T03:41:23;16.30;;;9.13;;
52458;SDS011;38372;52.902;6.024;2022-09-09T03:43:52;14.75;;;10.77;;
52458;SDS011;38372;52.902;6.024;2022-09-09T03:46:23;14.45;;;9.65;;
52458;SDS011;38372;52.902;6.024;2022-09-09T03:48:50;15.80;;;10.20;;
52458;SDS011;38372;52.902;6.024;2022-09-09T03:51:17;18.98;;;10.07;;
52458;SDS011;38372;52.902;6.024;2022-09-09T03:53:43;14.18;;;8.63;;
52458;SDS011;38372;52.902;6.024;2022-09-09T03:56:09;15.45;;;9.35;;
52458;SDS011;38372;52.902;6.024;2022-09-09T03:58:38;14.43;;;8.77;;
52458;SDS011;38372;52.902;6.024;2022-09-09T04:01:05;15.23;;;8.38;;
52458;SDS011;38372;52.902;6.024;2022-09-09T04:03:35;11.93;;;7.65;;
52458;SDS011;38372;52.902;6.024;2022-09-09T04:06:02;13.07;;;7.88;;
52458;SDS011;38372;52.902;6.024;2022-09-09T04:08:31;11.15;;;8.20;;
52458;SDS011;38372;52.902;6.024;2022-09-09T04:10:57;14.48;;;7.80;;
52458;SDS011;38372;52.902;6.024;2022-09-09T04:13:23;10.23;;;7.32;;
52458;SDS011;38372;52.902;6.024;2022-09-09T04:15:51;12.20;;;7.18;;
52458;SDS011;38372;52.902;6.024;2022-09-09T04:18:18;15.23;;;8.57;;
52458;SDS011;38372;52.902;6.024;2022-09-09T04:20:48;15.52;;;9.10;;
52458;SDS011;38372;52.902;6.024;2022-09-09T04:23:15;12.65;;;9.07;;
52458;SDS011;38372;52.902;6.024;2022-09-09T04:25:45;18.48;;;10.65;;
52458;SDS011;38372;52.902;6.024;2022-09-09T04:28:14;18.85;;;11.40;;
52458;SDS011;38372;52.902;6.024;2022-09-09T04:30:41;20.42;;;11.82;;
52458;SDS011;38372;52.902;6.024;2022-09-09T04:33:07;23.10;;;12.45;;
52458;SDS011;38372;52.902;6.024;2022-09-09T04:35:35;19.67;;;12.55;;
52458;SDS011;38372;52.902;6.024;2022-09-09T04:38:03;22.95;;;12.18;;
52458;SDS011;38372;52.902;6.024;2022-09-09T04:40:29;21.92;;;12.38;;
52458;SDS011;38372;52.902;6.024;2022-09-09T04:42:59;17.63;;;11.90;;
52458;SDS011;38372;52.902;6.024;2022-09-09T04:45:26;14.85;;;11.10;;
52458;SDS011;38372;52.902;6.024;2022-09-09T04:47:52;18.13;;;12.18;;
52458;SDS011;38372;52.902;6.024;2022-09-09T04:50:19;18.10;;;11.50;;
52458;SDS011;38372;52.902;6.024;2022-09-09T04:52:45;17.20;;;11.63;;
52458;SDS011;38372;52.902;6.024;2022-09-09T04:55:10;18.67;;;12.40;;
52458;SDS011;38372;52.902;6.024;2022-09-09T04:57:38;17.35;;;11.10;;
52458;SDS011;38372;52.902;6.024;2022-09-09T05:00:04;15.43;;;10.63;;
52458;SDS011;38372;52.902;6.024;2022-09-09T05:02:31;18.33;;;11.18;;
52458;SDS011;38372;52.902;6.024;2022-09-09T05:04:57;22.65;;;11.43;;
52458;SDS011;38372;52.902;6.024;2022-09-09T05:07:23;17.23;;;11.38;;
52458;SDS011;38372;52.902;6.024;2022-09-09T05:09:51;13.32;;;9.07;;
52458;SDS011;38372;52.902;6.024;2022-09-09T05:12:17;16.38;;;10.30;;
52458;SDS011;38372;52.902;6.024;2022-09-09T05:14:43;17.90;;;10.90;;
52458;SDS011;38372;52.902;6.024;2022-09-09T05:17:09;18.95;;;11.85;;
52458;SDS011;38372;52.902;6.024;2022-09-09T05:19:35;20.58;;;10.80;;
52458;SDS011;38372;52.902;6.024;2022-09-09T05:22:01;18.92;;;11.32;;
52458;SDS011;38372;52.902;6.024;2022-09-09T05:24:27;19.50;;;11.55;;
52458;SDS011;38372;52.902;6.024;2022-09-09T05:26:54;16.92;;;11.18;;
52458;SDS011;38372;52.902;6.024;2022-09-09T05:29:23;17.92;;;11.40;;
52458;SDS011;38372;52.902;6.024;2022-09-09T05:31:48;20.10;;;11.15;;
52458;SDS011;38372;52.902;6.024;2022-09-09T05:34:14;14.27;;;9.57;;
52458;SDS011;38372;52.902;6.024;2022-09-09T05:36:40;15.77;;;10.32;;
52458;SDS011;38372;52.902;6.024;2022-09-09T05:39:06;18.35;;;11.25;;
52458;SDS011;38372;52.902;6.024;2022-09-09T05:41:31;18.73;;;10.60;;
52458;SDS011;38372;52.902;6.024;2022-09-09T05:43:57;17.67;;;10.75;;
52458;SDS011;38372;52.902;6.024;2022-09-09T05:46:26;16.70;;;10.43;;
52458;SDS011;38372;52.902;6.024;2022-09-09T05:48:52;19.85;;;11.45;;
52458;SDS011;38372;52.902;6.024;2022-09-09T05:51:19;18.38;;;11.70;;
52458;SDS011;38372;52.902;6.024;2022-09-09T05:53:48;19.10;;;11.30;;
52458;SDS011;38372;52.902;6.024;2022-09-09T05:56:21;17.00;;;10.88;;
52458;SDS011;38372;52.902;6.024;2022-09-09T05:58:50;16.60;;;9.75;;
52458;SDS011;38372;52.902;6.024;2022-09-09T06:01:18;13.98;;;9.50;;
52458;SDS011;38372;52.902;6.024;2022-09-09T06:03:46;15.82;;;10.55;;
52458;SDS011;38372;52.902;6.024;2022-09-09T06:06:14;20.70;;;11.40;;
52458;SDS011;38372;52.902;6.024;2022-09-09T06:08:48;18.38;;;10.88;;
52458;SDS011;38372;52.902;6.024;2022-09-09T06:11:17;18.23;;;11.60;;
52458;SDS011;38372;52.902;6.024;2022-09-09T06:13:45;17.63;;;10.63;;
52458;SDS011;38372;52.902;6.024;2022-09-09T06:16:13;18.10;;;11.68;;
52458;SDS011;38372;52.902;6.024;2022-09-09T06:18:41;15.90;;;9.82;;
52458;SDS011;38372;52.902;6.024;2022-09-09T06:21:50;16.27;;;10.30;;
52458;SDS011;38372;52.902;6.024;2022-09-09T06:23:58;18.27;;;10.45;;
52458;SDS011;38372;52.902;6.024;2022-09-09T06:26:26;19.10;;;10.52;;
52458;SDS011;38372;52.902;6.024;2022-09-09T06:29:00;15.07;;;10.15;;
52458;SDS011;38372;52.902;6.024;2022-09-09T06:31:29;16.23;;;8.90;;
52458;SDS011;38372;52.902;6.024;2022-09-09T06:33:56;13.82;;;9.75;;
52458;SDS011;38372;52.902;6.024;2022-09-09T06:38:50;15.60;;;9.50;;
52458;SDS011;38372;52.902;6.024;2022-09-09T06:41:17;14.30;;;9.15;;
52458;SDS011;38372;52.902;6.024;2022-09-09T06:43:48;11.50;;;8.77;;
52458;SDS011;38372;52.902;6.024;2022-09-09T06:46:15;12.80;;;8.27;;
52458;SDS011;38372;52.902;6.024;2022-09-09T06:48:43;18.63;;;10.13;;
52458;SDS011;38372;52.902;6.024;2022-09-09T06:51:14;13.88;;;9.05;;
52458;SDS011;38372;52.902;6.024;2022-09-09T06:53:45;12.30;;;9.27;;
52458;SDS011;38372;52.902;6.024;2022-09-09T06:56:19;11.65;;;8.90;;
52458;SDS011;38372;52.902;6.024;2022-09-09T06:58:48;12.52;;;9.40;;
52458;SDS011;38372;52.902;6.024;2022-09-09T07:01:19;11.23;;;9.20;;
52458;SDS011;38372;52.902;6.024;2022-09-09T07:03:48;14.15;;;9.80;;
52458;SDS011;38372;52.902;6.024;2022-09-09T07:06:19;12.00;;;8.07;;
52458;SDS011;38372;52.902;6.024;2022-09-09T07:08:50;12.43;;;8.20;;
52458;SDS011;38372;52.902;6.024;2022-09-09T07:11:17;12.27;;;8.75;;
52458;SDS011;38372;52.902;6.024;2022-09-09T07:13:48;11.90;;;8.50;;
52458;SDS011;38372;52.902;6.024;2022-09-09T07:16:18;15.00;;;9.02;;
52458;SDS011;38372;52.902;6.024;2022-09-09T07:18:45;12.20;;;8.68;;
52458;SDS011;38372;52.902;6.024;2022-09-09T07:21:12;13.38;;;9.40;;
52458;SDS011;38372;52.902;6.024;2022-09-09T07:23:40;13.60;;;8.80;;
52458;SDS011;38372;52.902;6.024;2022-09-09T07:26:16;11.85;;;8.32;;
52458;SDS011;38372;52.902;6.024;2022-09-09T07:28:44;10.73;;;8.45;;
52458;SDS011;38372;52.902;6.024;2022-09-09T07:31:15;14.85;;;8.70;;
52458;SDS011;38372;52.902;6.024;2022-09-09T07:33:42;13.57;;;9.07;;
52458;SDS011;38372;52.902;6.024;2022-09-09T07:36:13;15.75;;;8.73;;
52458;SDS011;38372;52.902;6.024;2022-09-09T07:38:42;12.70;;;8.13;;
52458;SDS011;38372;52.902;6.024;2022-09-09T07:41:14;13.38;;;6.88;;
52458;SDS011;38372;52.902;6.024;2022-09-09T07:43:49;11.02;;;7.30;;
52458;SDS011;38372;52.902;6.024;2022-09-09T07:46:16;11.02;;;7.05;;
52458;SDS011;38372;52.902;6.024;2022-09-09T07:48:48;10.80;;;6.70;;
52458;SDS011;38372;52.902;6.024;2022-09-09T07:51:23;11.88;;;7.18;;
52458;SDS011;38372;52.902;6.024;2022-09-09T07:53:52;9.85;;;6.65;;
52458;SDS011;38372;52.902;6.024;2022-09-09T07:56:19;9.35;;;6.82;;
52458;SDS011;38372;52.902;6.024;2022-09-09T07:58:48;8.75;;;6.10;;
52458;SDS011;38372;52.902;6.024;2022-09-09T08:01:16;10.32;;;6.38;;
52458;SDS011;38372;52.902;6.024;2022-09-09T08:03:54;11.40;;;5.80;;
52458;SDS011;38372;52.902;6.024;2022-09-09T08:06:25;12.45;;;5.78;;
52458;SDS011;38372;52.902;6.024;2022-09-09T08:08:52;10.77;;;6.35;;
52458;SDS011;38372;52.902;6.024;2022-09-09T08:11:24;8.63;;;5.47;;
52458;SDS011;38372;52.902;6.024;2022-09-09T08:13:51;12.68;;;5.25;;
52458;SDS011;38372;52.902;6.024;2022-09-09T08:16:22;11.43;;;4.85;;
52458;SDS011;38372;52.902;6.024;2022-09-09T08:18:50;11.05;;;5.30;;
52458;SDS011;38372;52.902;6.024;2022-09-09T08:21:18;8.77;;;4.93;;
52458;SDS011;38372;52.902;6.024;2022-09-09T08:23:46;8.38;;;4.47;;
52458;SDS011;38372;52.902;6.024;2022-09-09T08:26:16;9.95;;;4.25;;
52458;SDS011;38372;52.902;6.024;2022-09-09T08:28:46;11.85;;;4.10;;
52458;SDS011;38372;52.902;6.024;2022-09-09T08:31:13;6.97;;;4.40;;
52458;SDS011;38372;52.902;6.024;2022-09-09T08:33:41;11.70;;;3.92;;
52458;SDS011;38372;52.902;6.024;2022-09-09T08:36:11;7.93;;;4.15;;
52458;SDS011;38372;52.902;6.024;2022-09-09T08:38:40;6.50;;;4.10;;
52458;SDS011;38372;52.902;6.024;2022-09-09T08:41:30;9.88;;;3.97;;
52458;SDS011;38372;52.902;6.024;2022-09-09T08:50:13;8.85;;;3.75;;
52458;SDS011;38372;52.902;6.024;2022-09-09T09:08:31;10.65;;;2.83;;
52458;SDS011;38372;52.902;6.024;2022-09-09T09:11:06;6.07;;;3.33;;
52458;SDS011;38372;52.902;6.024;2022-09-09T09:13:39;7.25;;;3.00;;
52458;SDS011;38372;52.902;6.024;2022-09-09T09:18:58;7.32;;;3.00;;
52458;SDS011;38372;52.902;6.024;2022-09-09T09:24:26;6.53;;;2.95;;
52458;SDS011;38372;52.902;6.024;2022-09-09T09:27:34;6.88;;;3.10;;
52458;SDS011;38372;52.902;6.024;2022-09-09T09:36:15;6.35;;;2.75;;
52458;SDS011;38372;52.902;6.024;2022-09-09T09:38:57;7.20;;;2.83;;
52458;SDS011;38372;52.902;6.024;2022-09-09T09:41:29;10.93;;;2.47;;
52458;SDS011;38372;52.902;6.024;2022-09-09T09:43:59;6.43;;;2.20;;
52458;SDS011;38372;52.902;6.024;2022-09-09T09:46:26;7.47;;;2.20;;
52458;SDS011;38372;52.902;6.024;2022-09-09T09:48:59;5.43;;;1.90;;
52458;SDS011;38372;52.902;6.024;2022-09-09T09:51:27;6.68;;;2.08;;
52458;SDS011;38372;52.902;6.024;2022-09-09T09:54:08;8.43;;;1.73;;
52458;SDS011;38372;52.902;6.024;2022-09-09T09:59:01;6.88;;;1.77;;
52458;SDS011;38372;52.902;6.024;2022-09-09T10:01:28;7.07;;;1.80;;
52458;SDS011;38372;52.902;6.024;2022-09-09T10:04:01;5.95;;;1.92;;
52458;SDS011;38372;52.902;6.024;2022-09-09T10:06:49;6.00;;;1.70;;
52458;SDS011;38372;52.902;6.024;2022-09-09T10:11:53;6.93;;;1.65;;
52458;SDS011;38372;52.902;6.024;2022-09-09T10:14:33;6.85;;;1.55;;
52458;SDS011;38372;52.902;6.024;2022-09-09T10:17:24;8.63;;;1.40;;
52458;SDS011;38372;52.902;6.024;2022-09-09T10:22:35;7.53;;;2.10;;
52458;SDS011;38372;52.902;6.024;2022-09-09T10:28:15;7.13;;;1.67;;
52458;SDS011;38372;52.902;6.024;2022-09-09T10:36:44;6.35;;;1.80;;
52458;SDS011;38372;52.902;6.024;2022-09-09T10:42:24;8.90;;;2.95;;
52458;SDS011;38372;52.902;6.024;2022-09-09T10:55:52;4.97;;;1.45;;
52458;SDS011;38372;52.902;6.024;2022-09-09T10:58:32;9.45;;;2.17;;
52458;SDS011;38372;52.902;6.024;2022-09-09T11:01:13;5.25;;;2.03;;
52458;SDS011;38372;52.902;6.024;2022-09-09T11:04:11;6.13;;;1.90;;
52458;SDS011;38372;52.902;6.024;2022-09-09T11:06:44;9.32;;;2.00;;
52458;SDS011;38372;52.902;6.024;2022-09-09T11:09:18;7.63;;;2.13;;
52458;SDS011;38372;52.902;6.024;2022-09-09T11:11:54;8.27;;;1.75;;
52458;SDS011;38372;52.902;6.024;2022-09-09T11:14:39;6.68;;;2.10;;
52458;SDS011;38372;52.902;6.024;2022-09-09T11:17:29;7.05;;;1.65;;
52458;SDS011;38372;52.902;6.024;2022-09-09T11:20:05;5.93;;;2.10;;
52458;SDS011;38372;52.902;6.024;2022-09-09T11:22:43;9.80;;;2.88;;
52458;SDS011;38372;52.902;6.024;2022-09-09T11:39:44;8.05;;;1.85;;
52458;SDS011;38372;52.902;6.024;2022-09-09T11:42:07;8.95;;;2.30;;
52458;SDS011;38372;52.902;6.024;2022-09-09T11:44:44;7.80;;;2.30;;
52458;SDS011;38372;52.902;6.024;2022-09-09T11:47:18;6.40;;;1.90;;
52458;SDS011;38372;52.902;6.024;2022-09-09T11:49:51;9.55;;;2.22;;
52458;SDS011;38372;52.902;6.024;2022-09-09T11:52:23;7.97;;;2.42;;
52458;SDS011;38372;52.902;6.024;2022-09-09T11:54:52;5.75;;;1.85;;
52458;SDS011;38372;52.902;6.024;2022-09-09T12:02:29;7.07;;;2.13;;
52458;SDS011;38372;52.902;6.024;2022-09-09T12:07:37;6.82;;;1.95;;
52458;SDS011;38372;52.902;6.024;2022-09-09T12:12:34;7.75;;;1.80;;
52458;SDS011;38372;52.902;6.024;2022-09-09T12:20:13;4.43;;;1.33;;
52458;SDS011;38372;52.902;6.024;2022-09-09T12:25:16;6.38;;;1.70;;
52458;SDS011;38372;52.902;6.024;2022-09-09T12:28:09;7.65;;;1.67;;
52458;SDS011;38372;52.902;6.024;2022-09-09T12:30:49;8.13;;;1.63;;
52458;SDS011;38372;52.902;6.024;2022-09-09T12:33:17;11.38;;;2.13;;
52458;SDS011;38372;52.902;6.024;2022-09-09T12:35:44;10.98;;;2.80;;
52458;SDS011;38372;52.902;6.024;2022-09-09T12:38:22;7.47;;;2.70;;
52458;SDS011;38372;52.902;6.024;2022-09-09T12:41:05;7.20;;;3.17;;
52458;SDS011;38372;52.902;6.024;2022-09-09T12:43:31;8.02;;;2.83;;
52458;SDS011;38372;52.902;6.024;2022-09-09T12:46:01;4.70;;;2.90;;
52458;SDS011;38372;52.902;6.024;2022-09-09T12:48:34;9.07;;;2.95;;
52458;SDS011;38372;52.902;6.024;2022-09-09T12:51:02;5.47;;;3.00;;
52458;SDS011;38372;52.902;6.024;2022-09-09T12:53:33;6.47;;;2.00;;
52458;SDS011;38372;52.902;6.024;2022-09-09T12:56:02;7.57;;;2.88;;
52458;SDS011;38372;52.902;6.024;2022-09-09T12:58:32;8.93;;;2.63;;
52458;SDS011;38372;52.902;6.024;2022-09-09T13:01:00;7.65;;;3.58;;
52458;SDS011;38372;52.902;6.024;2022-09-09T13:03:28;8.27;;;2.63;;
52458;SDS011;38372;52.902;6.024;2022-09-09T13:05:54;6.05;;;2.72;;
52458;SDS011;38372;52.902;6.024;2022-09-09T13:08:25;4.63;;;1.20;;
52458;SDS011;38372;52.902;6.024;2022-09-09T13:11:01;7.05;;;1.95;;
52458;SDS011;38372;52.902;6.024;2022-09-09T13:13:38;5.97;;;2.17;;
52458;SDS011;38372;52.902;6.024;2022-09-09T13:16:06;4.95;;;2.20;;
52458;SDS011;38372;52.902;6.024;2022-09-09T13:18:43;3.67;;;1.77;;
52458;SDS011;38372;52.902;6.024;2022-09-09T13:21:09;7.47;;;2.38;;
52458;SDS011;38372;52.902;6.024;2022-09-09T13:23:36;4.93;;;2.10;;
52458;SDS011;38372;52.902;6.024;2022-09-09T13:26:03;5.28;;;2.00;;
52458;SDS011;38372;52.902;6.024;2022-09-09T13:31:18;5.00;;;2.00;;
52458;SDS011;38372;52.902;6.024;2022-09-09T13:33:45;4.18;;;1.33;;
52458;SDS011;38372;52.902;6.024;2022-09-09T13:36:12;3.00;;;1.27;;
52458;SDS011;38372;52.902;6.024;2022-09-09T13:41:21;3.17;;;1.50;;
52458;SDS011;38372;52.902;6.024;2022-09-09T13:43:49;6.30;;;1.58;;
52458;SDS011;38372;52.902;6.024;2022-09-09T13:46:35;4.18;;;1.65;;
52458;SDS011;38372;52.902;6.024;2022-09-09T13:51:45;3.78;;;1.30;;
52458;SDS011;38372;52.902;6.024;2022-09-09T13:54:13;7.10;;;1.90;;
52458;SDS011;38372;52.902;6.024;2022-09-09T13:56:41;3.78;;;1.52;;
52458;SDS011;38372;52.902;6.024;2022-09-09T13:59:11;4.97;;;1.90;;
52458;SDS011;38372;52.902;6.024;2022-09-09T14:01:41;8.07;;;2.08;;
52458;SDS011;38372;52.902;6.024;2022-09-09T14:04:08;4.28;;;2.00;;
52458;SDS011;38372;52.902;6.024;2022-09-09T14:06:34;7.50;;;1.85;;
52458;SDS011;38372;52.902;6.024;2022-09-09T14:09:09;6.57;;;1.80;;
52458;SDS011;38372;52.902;6.024;2022-09-09T14:11:37;6.80;;;1.67;;
52458;SDS011;38372;52.902;6.024;2022-09-09T14:14:03;7.38;;;1.85;;
52458;SDS011;38372;52.902;6.024;2022-09-09T14:16:30;3.03;;;1.20;;
52458;SDS011;38372;52.902;6.024;2022-09-09T14:18:56;5.47;;;1.80;;
52458;SDS011;38372;52.902;6.024;2022-09-09T14:21:22;4.65;;;1.50;;
52458;SDS011;38372;52.902;6.024;2022-09-09T14:23:48;5.75;;;1.63;;
52458;SDS011;38372;52.902;6.024;2022-09-09T14:26:14;5.13;;;1.83;;
52458;SDS011;38372;52.902;6.024;2022-09-09T14:28:40;3.88;;;1.45;;
52458;SDS011;38372;52.902;6.024;2022-09-09T14:31:06;4.53;;;1.50;;
52458;SDS011;38372;52.902;6.024;2022-09-09T14:33:32;4.43;;;1.42;;
52458;SDS011;38372;52.902;6.024;2022-09-09T14:35:59;6.93;;;1.90;;
52458;SDS011;38372;52.902;6.024;2022-09-09T14:38:31;5.03;;;2.08;;
52458;SDS011;38372;52.902;6.024;2022-09-09T14:40:59;5.43;;;2.00;;
52458;SDS011;38372;52.902;6.024;2022-09-09T14:43:26;5.22;;;2.05;;
52458;SDS011;38372;52.902;6.024;2022-09-09T14:45:52;7.13;;;2.53;;
52458;SDS011;38372;52.902;6.024;2022-09-09T14:48:17;5.80;;;2.10;;
52458;SDS011;38372;52.902;6.024;2022-09-09T14:50:44;7.80;;;2.72;;
52458;SDS011;38372;52.902;6.024;2022-09-09T14:53:09;5.57;;;2.60;;
52458;SDS011;38372;52.902;6.024;2022-09-09T14:55:36;4.00;;;1.83;;
52458;SDS011;38372;52.902;6.024;2022-09-09T14:58:03;6.20;;;2.47;;
52458;SDS011;38372;52.902;6.024;2022-09-09T15:00:31;5.57;;;2.55;;
52458;SDS011;38372;52.902;6.024;2022-09-09T15:02:57;5.35;;;2.72;;
52458;SDS011;38372;52.902;6.024;2022-09-09T15:05:23;6.65;;;2.70;;
52458;SDS011;38372;52.902;6.024;2022-09-09T15:07:49;5.10;;;2.47;;
52458;SDS011;38372;52.902;6.024;2022-09-09T15:10:15;4.68;;;2.40;;
52458;SDS011;38372;52.902;6.024;2022-09-09T15:12:42;5.32;;;3.08;;
52458;SDS011;38372;52.902;6.024;2022-09-09T15:15:09;6.30;;;2.90;;
52458;SDS011;38372;52.902;6.024;2022-09-09T15:17:35;7.15;;;3.42;;
52458;SDS011;38372;52.902;6.024;2022-09-09T15:20:02;7.05;;;3.00;;
52458;SDS011;38372;52.902;6.024;2022-09-09T15:22:30;7.78;;;3.50;;
52458;SDS011;38372;52.902;6.024;2022-09-09T15:24:56;8.15;;;3.20;;
52458;SDS011;38372;52.902;6.024;2022-09-09T15:27:22;8.18;;;3.05;;
52458;SDS011;38372;52.902;6.024;2022-09-09T15:29:49;5.70;;;3.45;;
52458;SDS011;38372;52.902;6.024;2022-09-09T15:32:16;5.60;;;2.78;;
52458;SDS011;38372;52.902;6.024;2022-09-09T15:34:42;5.18;;;2.75;;
52458;SDS011;38372;52.902;6.024;2022-09-09T15:37:11;4.90;;;2.65;;
52458;SDS011;38372;52.902;6.024;2022-09-09T15:39:38;4.55;;;2.35;;
52458;SDS011;38372;52.902;6.024;2022-09-09T15:42:06;4.57;;;2.30;;
52458;SDS011;38372;52.902;6.024;2022-09-09T15:44:42;3.97;;;2.10;;
52458;SDS011;38372;52.902;6.024;2022-09-09T15:47:10;3.80;;;1.98;;
52458;SDS011;38372;52.902;6.024;2022-09-09T15:49:38;5.07;;;2.33;;
52458;SDS011;38372;52.902;6.024;2022-09-09T15:52:03;7.60;;;2.80;;
52458;SDS011;38372;52.902;6.024;2022-09-09T15:54:35;6.47;;;2.15;;
52458;SDS011;38372;52.902;6.024;2022-09-09T15:57:05;6.55;;;2.67;;
52458;SDS011;38372;52.902;6.024;2022-09-09T15:59:34;8.77;;;4.18;;
52458;SDS011;38372;52.902;6.024;2022-09-09T16:01:59;4.85;;;2.22;;
52458;SDS011;38372;52.902;6.024;2022-09-09T16:04:26;4.93;;;2.60;;
52458;SDS011;38372;52.902;6.024;2022-09-09T16:06:58;5.05;;;2.28;;
52458;SDS011;38372;52.902;6.024;2022-09-09T16:09:26;6.15;;;3.42;;
52458;SDS011;38372;52.902;6.024;2022-09-09T16:11:55;7.47;;;3.05;;
52458;SDS011;38372;52.902;6.024;2022-09-09T16:14:23;3.53;;;2.22;;
52458;SDS011;38372;52.902;6.024;2022-09-09T16:16:50;6.72;;;2.28;;
52458;SDS011;38372;52.902;6.024;2022-09-09T16:19:17;6.32;;;2.08;;
52458;SDS011;38372;52.902;6.024;2022-09-09T16:21:44;4.47;;;2.20;;
52458;SDS011;38372;52.902;6.024;2022-09-09T16:24:12;6.88;;;2.63;;
52458;SDS011;38372;52.902;6.024;2022-09-09T16:26:41;6.28;;;2.40;;
52458;SDS011;38372;52.902;6.024;2022-09-09T16:29:12;5.43;;;2.38;;
52458;SDS011;38372;52.902;6.024;2022-09-09T16:31:39;3.45;;;2.47;;
52458;SDS011;38372;52.902;6.024;2022-09-09T16:34:05;4.88;;;2.45;;
52458;SDS011;38372;52.902;6.024;2022-09-09T16:36:32;3.97;;;2.40;;
52458;SDS011;38372;52.902;6.024;2022-09-09T16:39:01;4.05;;;2.53;;
52458;SDS011;38372;52.902;6.024;2022-09-09T16:41:35;3.78;;;2.55;;
52458;SDS011;38372;52.902;6.024;2022-09-09T16:44:03;7.43;;;2.95;;
52458;SDS011;38372;52.902;6.024;2022-09-09T16:46:31;3.88;;;2.58;;
52458;SDS011;38372;52.902;6.024;2022-09-09T16:49:02;4.60;;;2.88;;
52458;SDS011;38372;52.902;6.024;2022-09-09T16:51:31;6.20;;;2.67;;
52458;SDS011;38372;52.902;6.024;2022-09-09T16:54:04;5.53;;;2.90;;
52458;SDS011;38372;52.902;6.024;2022-09-09T16:56:32;4.68;;;2.67;;
52458;SDS011;38372;52.902;6.024;2022-09-09T16:59:03;5.35;;;2.90;;
52458;SDS011;38372;52.902;6.024;2022-09-09T17:01:31;4.28;;;2.33;;
52458;SDS011;38372;52.902;6.024;2022-09-09T17:04:00;5.33;;;2.90;;
52458;SDS011;38372;52.902;6.024;2022-09-09T17:06:28;7.43;;;2.60;;
52458;SDS011;38372;52.902;6.024;2022-09-09T17:08:55;6.15;;;2.72;;
52458;SDS011;38372;52.902;6.024;2022-09-09T17:11:22;7.32;;;2.55;;
52458;SDS011;38372;52.902;6.024;2022-09-09T17:13:49;5.40;;;3.00;;
52458;SDS011;38372;52.902;6.024;2022-09-09T17:16:17;6.95;;;2.63;;
52458;SDS011;38372;52.902;6.024;2022-09-09T17:18:45;7.00;;;2.70;;
52458;SDS011;38372;52.902;6.024;2022-09-09T17:21:12;6.72;;;3.05;;
52458;SDS011;38372;52.902;6.024;2022-09-09T17:23:40;5.18;;;2.60;;
52458;SDS011;38372;52.902;6.024;2022-09-09T17:26:07;4.78;;;2.47;;
52458;SDS011;38372;52.902;6.024;2022-09-09T17:28:35;5.45;;;2.83;;
52458;SDS011;38372;52.902;6.024;2022-09-09T17:31:03;5.78;;;2.58;;
52458;SDS011;38372;52.902;6.024;2022-09-09T17:33:32;5.47;;;2.38;;
52458;SDS011;38372;52.902;6.024;2022-09-09T17:36:00;5.35;;;2.60;;